Uspallata, Argentina
Current Conditions -  °F | °C
As of 11:00 AM on Friday 28 Nov 2014 (Local Time) from SAME Reporting Station
Clear Clear  
Wind Chill: 75°   Ceiling: Unl
Heat Index: 75°   Visibility: 6mi
Dew Point: 34°   Wind: 13mph
Humidity: 22%   Direction: 160°SSE
Pressure: 29.85"   Gusts: NA
Location:  32.59°S, 69.35°W
Report Text: SAME 281400Z 16011KT CAVOK 24/01 Q1011
Loading
Personal Weather Stations






























Interactive Weather Map New forecast layout! Learn more

10-Day Weather Forecast

Advertisements
Track Severe Weather on mobile